In Rescue
 
Open Full Screen Window  High Contrast Mode
Wind Gusting 00 knots
05
July 25, 2021 9:45 AM EDT
Weather Information
Wind Direction
  290 °
Wind Speed
  05 kt (6 mph)
Wind Gust
  00 kt (0 mph)
Altimeter
29.96 in
Visibility
10 SM
Temperature
26° C
79° F
Dewpoint
25° C
77° F
Humidity
94%
1hr Rain Fall
00.00 in.
24hr Rain Fall
00.06 in.
Sky Condition
Overcast @ 1,700 ft
Broken @ 1,300 ft
Scattered @ 800 ft
MVFR

METAR KDLZ 251345Z AUTO 29005KT 10SM SCT008 BKN013 OVC017 26/25 A2996 RMK AO2

FAA Disclaimer: The data displayed is for advisory purposes only and is not to be used for flight planning or operations.